createdAt,value
2023-01-23T00:09:33.344Z,19.60
2023-01-23T00:10:33.168Z,29.00
2023-01-23T00:11:33.116Z,29.40
2023-01-23T00:12:33.064Z,33.20
2023-01-23T00:13:33.001Z,32.70
2023-01-23T00:14:32.950Z,30.70
2023-01-23T00:15:32.938Z,32.90
2023-01-23T00:16:32.852Z,35.00
2023-01-23T00:17:32.792Z,32.40
2023-01-23T00:18:32.743Z,29.00
2023-01-23T00:19:32.689Z,30.40
2023-01-23T00:20:32.639Z,31.30
2023-01-23T00:21:32.591Z,30.80
2023-01-23T00:22:32.538Z,30.00
2023-01-23T00:23:32.489Z,27.40
2023-01-23T00:24:32.438Z,29.10
2023-01-23T00:25:32.505Z,28.00
2023-01-23T00:26:32.341Z,29.30
2023-01-23T00:27:32.288Z,26.70
2023-01-23T00:28:32.248Z,28.50
2023-01-23T00:29:32.190Z,29.70
2023-01-23T00:30:32.206Z,26.20
2023-01-23T00:31:32.246Z,26.90
2023-01-23T00:32:32.050Z,26.60
2023-01-23T00:33:31.999Z,29.20
2023-01-23T00:34:31.944Z,25.90
2023-01-23T00:35:31.896Z,28.10
2023-01-23T00:36:31.850Z,26.20
2023-01-23T00:37:31.796Z,24.70
2023-01-23T00:38:31.760Z,28.00
2023-01-23T00:39:31.709Z,27.60
2023-01-23T00:40:31.657Z,25.80
2023-01-23T00:41:31.710Z,23.90
2023-01-23T00:42:31.771Z,26.50
2023-01-23T00:43:31.518Z,26.30
2023-01-23T00:44:31.471Z,27.10
2023-01-23T00:45:31.409Z,29.00
2023-01-23T00:46:31.471Z,24.80
2023-01-23T00:47:31.317Z,24.00
2023-01-23T00:48:31.264Z,26.20
2023-01-23T00:49:31.215Z,28.80
2023-01-23T00:50:31.166Z,26.70
2023-01-23T00:51:31.145Z,26.80
2023-01-23T00:52:31.083Z,25.70
2023-01-23T00:53:31.023Z,26.20
2023-01-23T00:54:30.975Z,26.20
2023-01-23T00:55:30.930Z,25.90
2023-01-23T00:56:30.877Z,25.40
2023-01-23T00:57:30.940Z,27.40
2023-01-23T00:58:30.787Z,29.80
2023-01-23T00:59:30.731Z,28.20
2023-01-23T01:00:30.685Z,24.70
2023-01-23T01:01:30.646Z,24.00
2023-01-23T01:02:30.681Z,26.60
2023-01-23T01:03:30.543Z,25.70
2023-01-23T01:05:30.446Z,24.10
2023-01-23T01:06:30.406Z,25.70
2023-01-23T01:07:30.350Z,23.30
2023-01-23T01:08:30.329Z,25.30
2023-01-23T01:09:30.335Z,24.00
2023-01-23T01:10:30.224Z,24.30
2023-01-23T01:11:30.170Z,23.60
2023-01-23T01:12:30.107Z,23.30
2023-01-23T01:13:30.180Z,23.70
2023-01-23T01:14:30.020Z,24.60
2023-01-23T01:15:29.991Z,25.70
2023-01-23T01:16:29.995Z,23.00
2023-01-23T01:17:29.875Z,21.60
2023-01-23T01:18:29.831Z,22.20
2023-01-23T01:19:29.774Z,24.90
2023-01-23T01:20:29.726Z,22.80
2023-01-23T01:21:29.753Z,24.10
2023-01-23T01:22:29.631Z,20.20
2023-01-23T01:23:29.586Z,22.30
2023-01-23T01:24:29.549Z,22.30
2023-01-23T01:25:29.489Z,21.20
2023-01-23T01:26:29.439Z,22.20
2023-01-23T01:27:29.392Z,20.80
2023-01-23T01:28:29.342Z,21.40
2023-01-23T01:29:29.414Z,20.90
2023-01-23T01:30:29.253Z,19.50
2023-01-23T01:31:29.343Z,22.40
2023-01-23T01:32:29.156Z,19.90
2023-01-23T01:33:29.115Z,20.40
2023-01-23T01:34:29.058Z,21.00
2023-01-23T01:35:29.010Z,19.80
2023-01-23T01:36:28.970Z,19.60
2023-01-23T01:37:28.917Z,19.10
2023-01-23T01:38:28.867Z,21.20
2023-01-23T01:39:28.837Z,19.50
2023-01-23T01:40:28.770Z,20.40
2023-01-23T01:41:28.721Z,21.00
2023-01-23T01:42:28.678Z,19.10
2023-01-23T01:43:28.674Z,19.50
2023-01-23T01:44:28.607Z,19.30
2023-01-23T01:45:28.648Z,18.60
2023-01-23T01:46:28.549Z,18.50
2023-01-23T01:47:28.493Z,19.10
2023-01-23T01:48:28.467Z,18.30
2023-01-23T01:49:28.345Z,17.90
2023-01-23T01:50:28.292Z,18.20
2023-01-23T01:51:28.451Z,17.10
2023-01-23T01:52:28.195Z,18.00
2023-01-23T01:53:28.156Z,20.70
2023-01-23T01:54:28.102Z,18.30
2023-01-23T01:55:28.054Z,18.80
2023-01-23T01:56:28.007Z,18.10
2023-01-23T01:57:27.960Z,19.10
2023-01-23T01:58:28.112Z,20.60
2023-01-23T01:59:27.866Z,16.60
2023-01-23T02:00:27.845Z,17.40
2023-01-23T02:01:27.881Z,17.80
2023-01-23T02:02:27.721Z,16.80
2023-01-23T02:03:27.676Z,20.00
2023-01-23T02:04:27.623Z,18.10
2023-01-23T02:05:27.577Z,18.40
2023-01-23T02:06:27.539Z,16.70
2023-01-23T02:07:27.486Z,17.40
2023-01-23T02:08:27.436Z,19.90
2023-01-23T02:09:27.389Z,19.00
2023-01-23T02:10:27.340Z,18.70
2023-01-23T02:11:27.293Z,17.60
2023-01-23T02:12:27.245Z,16.10
2023-01-23T02:13:27.206Z,19.10
2023-01-23T02:14:27.148Z,19.10
2023-01-23T02:15:27.113Z,17.30
2023-01-23T02:16:27.118Z,18.50
2023-01-23T02:17:27.152Z,18.40
2023-01-23T02:18:26.959Z,19.70
2023-01-23T02:19:26.907Z,18.50
2023-01-23T02:20:26.870Z,18.20
2023-01-23T02:21:26.815Z,17.60
2023-01-23T02:22:26.767Z,18.40
2023-01-23T02:23:26.716Z,19.40
2023-01-23T02:24:26.670Z,19.50
2023-01-23T02:25:26.822Z,19.40
2023-01-23T02:26:26.574Z,17.70
2023-01-23T02:27:26.527Z,18.50
2023-01-23T02:28:26.475Z,18.90
2023-01-23T02:29:26.437Z,18.30
2023-01-23T02:30:26.380Z,17.80
2023-01-23T02:31:26.442Z,18.00
2023-01-23T02:32:26.283Z,19.80
2023-01-23T02:33:26.354Z,17.80
2023-01-23T02:34:26.241Z,18.80
2023-01-23T02:35:26.148Z,17.10
2023-01-23T02:36:26.094Z,19.80
2023-01-23T02:37:26.052Z,19.70
2023-01-23T02:38:25.998Z,20.00
2023-01-23T02:39:25.952Z,20.70
2023-01-23T02:40:25.908Z,19.80
2023-01-23T02:41:25.892Z,18.40
2023-01-23T02:42:25.830Z,19.50
2023-01-23T02:43:25.760Z,20.50
2023-01-23T02:44:25.718Z,17.80
2023-01-23T02:45:25.758Z,20.30
2023-01-23T02:46:25.620Z,20.10
2023-01-23T02:47:25.576Z,19.90
2023-01-23T02:48:25.525Z,19.80
2023-01-23T02:49:25.598Z,20.10
2023-01-23T02:50:25.423Z,20.70
2023-01-23T02:51:25.590Z,20.60
2023-01-23T02:52:25.329Z,20.00
2023-01-23T02:53:25.281Z,20.20
2023-01-23T02:54:25.229Z,18.80
2023-01-23T02:55:25.183Z,20.90
2023-01-23T02:56:25.134Z,21.00
2023-01-23T02:57:25.089Z,21.40
2023-01-23T02:58:25.038Z,20.80
2023-01-23T02:59:24.993Z,18.90
2023-01-23T03:00:24.945Z,16.80
2023-01-23T03:01:24.904Z,19.70
2023-01-23T03:02:24.909Z,19.60
2023-01-23T03:03:24.811Z,18.40
2023-01-23T03:04:24.755Z,20.40
2023-01-23T03:05:24.830Z,19.50
2023-01-23T03:06:24.658Z,21.60
2023-01-23T03:07:24.609Z,20.40
2023-01-23T03:08:24.577Z,21.20
2023-01-23T03:09:24.523Z,21.90
2023-01-23T03:10:24.466Z,20.20
2023-01-23T03:11:24.422Z,20.60
2023-01-23T03:12:24.366Z,18.60
2023-01-23T03:13:24.321Z,19.20
2023-01-23T03:14:24.292Z,22.60
2023-01-23T03:15:24.229Z,22.80
2023-01-23T03:16:24.205Z,20.70
2023-01-23T03:17:24.131Z,19.30
2023-01-23T03:18:24.079Z,21.30
2023-01-23T03:19:24.047Z,19.00
2023-01-23T03:20:23.989Z,17.80
2023-01-23T03:21:24.049Z,18.30
2023-01-23T03:22:23.889Z,19.60
2023-01-23T03:24:23.795Z,19.90
2023-01-23T03:25:23.753Z,19.30
2023-01-23T03:26:23.697Z,18.90
2023-01-23T03:27:23.646Z,19.90
2023-01-23T03:28:23.601Z,19.80
2023-01-23T03:29:23.553Z,21.00
2023-01-23T03:30:23.507Z,19.10
2023-01-23T03:31:23.554Z,18.80
2023-01-23T03:32:23.410Z,20.10
2023-01-23T03:33:23.366Z,18.30
2023-01-23T03:34:23.314Z,19.80
2023-01-23T03:35:23.266Z,19.20
2023-01-23T03:36:23.220Z,20.40
2023-01-23T03:37:23.287Z,19.30
2023-01-23T03:38:23.123Z,17.60
2023-01-23T03:39:23.071Z,19.10
2023-01-23T03:40:23.039Z,18.60
2023-01-23T03:41:22.978Z,18.10
2023-01-23T03:42:22.930Z,18.70
2023-01-23T03:43:22.880Z,19.50
2023-01-23T03:44:22.837Z,18.90
2023-01-23T03:45:22.801Z,18.90
2023-01-23T03:46:22.741Z,21.70
2023-01-23T03:47:22.694Z,20.00
2023-01-23T03:48:22.641Z,19.90
2023-01-23T03:49:22.595Z,20.20
2023-01-23T03:50:22.656Z,19.20
2023-01-23T03:51:22.599Z,21.90
2023-01-23T03:52:22.450Z,19.70
2023-01-23T03:53:22.428Z,21.30
2023-01-23T03:54:22.353Z,19.10
2023-01-23T03:55:22.318Z,18.60
2023-01-23T03:56:22.257Z,20.10
2023-01-23T03:57:22.208Z,18.70
2023-01-23T03:58:22.161Z,17.70
2023-01-23T03:59:22.111Z,18.80
2023-01-23T04:00:22.355Z,18.10
2023-01-23T04:01:22.145Z,20.00
2023-01-23T04:02:21.973Z,19.50
2023-01-23T04:03:21.920Z,20.90
2023-01-23T04:04:21.876Z,20.20
2023-01-23T04:05:21.826Z,19.30
2023-01-23T04:06:21.782Z,19.50
2023-01-23T04:07:21.726Z,20.60
2023-01-23T04:08:21.681Z,19.80
2023-01-23T04:09:21.945Z,19.60
2023-01-23T04:10:21.938Z,20.00
2023-01-23T04:11:21.538Z,21.00
2023-01-23T04:12:21.489Z,19.90
2023-01-23T04:13:21.440Z,19.60
2023-01-23T04:14:21.403Z,20.70
2023-01-23T04:15:21.347Z,20.80
2023-01-23T04:16:21.327Z,20.20
2023-01-23T04:17:21.254Z,21.00
2023-01-23T04:18:21.200Z,21.00
2023-01-23T04:19:21.151Z,20.10
2023-01-23T04:20:21.437Z,21.90
2023-01-23T04:21:21.053Z,20.70
2023-01-23T04:22:21.035Z,20.50
2023-01-23T04:23:20.955Z,18.90
2023-01-23T04:24:20.917Z,18.40
2023-01-23T04:25:20.992Z,19.90
2023-01-23T04:26:20.826Z,20.10
2023-01-23T04:27:20.772Z,20.80
2023-01-23T04:28:20.719Z,20.20
2023-01-23T04:29:20.679Z,18.80
2023-01-23T04:30:20.907Z,21.60
2023-01-23T04:31:20.725Z,21.90
2023-01-23T04:32:20.523Z,20.50
2023-01-23T04:33:20.482Z,21.50
2023-01-23T04:34:20.429Z,20.50
2023-01-23T04:35:20.381Z,21.70
2023-01-23T04:36:20.332Z,21.60
2023-01-23T04:37:20.290Z,21.10
2023-01-23T04:38:20.240Z,21.70
2023-01-23T04:39:20.191Z,22.40
2023-01-23T04:40:20.468Z,20.60
2023-01-23T04:41:20.209Z,20.20
2023-01-23T04:42:20.046Z,21.70
2023-01-23T04:43:19.996Z,22.30
2023-01-23T04:44:19.993Z,20.70
2023-01-23T04:45:19.900Z,19.50
2023-01-23T04:46:19.929Z,22.40
2023-01-23T04:47:19.815Z,21.80
2023-01-23T04:48:19.761Z,20.80
2023-01-23T04:49:19.708Z,22.10
2023-01-23T04:50:20.010Z,22.10
2023-01-23T04:51:19.653Z,20.60
2023-01-23T04:52:19.559Z,22.00
2023-01-23T04:53:19.520Z,20.50
2023-01-23T04:54:19.467Z,20.60
2023-01-23T04:55:19.419Z,21.90
2023-01-23T04:56:19.368Z,22.00
2023-01-23T04:57:19.450Z,21.50
2023-01-23T04:58:19.281Z,23.00
2023-01-23T04:59:19.225Z,21.70
2023-01-23T05:00:19.615Z,23.20
2023-01-23T05:01:19.214Z,22.10
2023-01-23T05:02:19.116Z,23.50
2023-01-23T05:03:19.033Z,25.30
2023-01-23T05:04:18.982Z,22.40
2023-01-23T05:05:18.944Z,22.50
2023-01-23T05:06:18.885Z,23.70
2023-01-23T05:07:18.849Z,21.40
2023-01-23T05:08:18.793Z,24.70
2023-01-23T05:09:18.746Z,23.70
2023-01-23T05:10:18.953Z,23.60
2023-01-23T05:11:18.647Z,22.50
2023-01-23T05:12:18.597Z,21.00
2023-01-23T05:13:18.731Z,21.30
2023-01-23T05:14:18.705Z,22.20
2023-01-23T05:15:18.458Z,21.70
2023-01-23T05:16:18.411Z,21.30
2023-01-23T05:17:18.363Z,23.80
2023-01-23T05:18:18.316Z,24.20
2023-01-23T05:19:18.264Z,24.50
2023-01-23T05:20:18.456Z,20.80
2023-01-23T05:21:18.176Z,22.30
2023-01-23T05:22:18.123Z,20.90
2023-01-23T05:23:18.072Z,21.80
2023-01-23T05:24:18.026Z,23.30
2023-01-23T05:25:17.975Z,22.80
2023-01-23T05:26:17.927Z,20.30
2023-01-23T05:27:17.877Z,23.70
2023-01-23T05:28:17.830Z,24.20
2023-01-23T05:29:17.898Z,23.00
2023-01-23T05:30:18.025Z,23.00
2023-01-23T05:31:17.806Z,23.10
2023-01-23T05:32:17.643Z,22.00
2023-01-23T05:33:17.607Z,23.60
2023-01-23T05:34:17.541Z,21.70
2023-01-23T05:35:17.493Z,23.70
2023-01-23T05:36:18.623Z,23.10
2023-01-23T05:37:17.608Z,24.30
2023-01-23T05:38:17.349Z,23.00
2023-01-23T05:39:17.300Z,23.70
2023-01-23T05:40:17.369Z,26.50
2023-01-23T05:41:17.257Z,21.80
2023-01-23T05:42:17.208Z,24.10
2023-01-23T05:43:17.226Z,24.60
2023-01-23T05:44:17.095Z,24.60
2023-01-23T05:45:17.142Z,25.30
2023-01-23T05:46:17.030Z,24.90
2023-01-23T05:47:16.916Z,23.90
2023-01-23T05:48:16.877Z,25.50
2023-01-23T05:49:16.822Z,27.20
2023-01-23T05:50:16.773Z,25.80
2023-01-23T05:51:16.840Z,25.90
2023-01-23T05:52:16.673Z,24.80
2023-01-23T05:53:16.634Z,27.20
2023-01-23T05:54:16.578Z,26.10
2023-01-23T05:55:16.537Z,29.40
2023-01-23T05:56:16.487Z,25.30
2023-01-23T05:57:16.436Z,27.60
2023-01-23T05:58:16.386Z,27.70
2023-01-23T05:59:16.343Z,27.30
2023-01-23T06:00:16.297Z,28.00
2023-01-23T06:01:16.375Z,26.80
2023-01-23T06:02:16.247Z,27.40
2023-01-23T06:03:16.183Z,28.70
2023-01-23T06:04:16.104Z,28.10
2023-01-23T06:05:16.055Z,27.70
2023-01-23T06:06:16.007Z,28.30
2023-01-23T06:07:15.954Z,28.20
2023-01-23T06:08:15.909Z,26.90
2023-01-23T06:09:15.861Z,28.10
2023-01-23T06:10:15.811Z,27.40
2023-01-23T06:11:15.784Z,28.40
2023-01-23T06:12:15.717Z,29.40
2023-01-23T06:13:15.666Z,26.20
2023-01-23T06:14:15.616Z,29.30
2023-01-23T06:15:15.574Z,29.60
2023-01-23T06:16:15.558Z,26.10
2023-01-23T06:17:15.596Z,28.40
2023-01-23T06:18:15.466Z,27.30
2023-01-23T06:19:15.379Z,29.60
2023-01-23T06:20:15.325Z,27.00
2023-01-23T06:21:15.286Z,28.00
2023-01-23T06:22:15.240Z,26.40
2023-01-23T06:23:15.206Z,26.10
2023-01-23T06:24:15.133Z,27.90
2023-01-23T06:25:15.091Z,26.60
2023-01-23T06:26:15.045Z,26.20
2023-01-23T06:27:14.991Z,25.90
2023-01-23T06:28:14.946Z,27.60
2023-01-23T06:29:14.896Z,27.80
2023-01-23T06:30:14.860Z,26.80
2023-01-23T06:31:14.900Z,26.00
2023-01-23T06:32:14.749Z,27.20
2023-01-23T06:33:14.822Z,24.40
2023-01-23T06:34:14.657Z,26.60
2023-01-23T06:35:14.682Z,27.50
2023-01-23T06:36:14.558Z,27.10
2023-01-23T06:37:14.521Z,26.30
2023-01-23T06:38:14.466Z,27.10
2023-01-23T06:39:14.416Z,27.50
2023-01-23T06:40:14.367Z,28.20
2023-01-23T06:41:14.323Z,25.60
2023-01-23T06:42:14.278Z,27.40
2023-01-23T06:43:14.226Z,24.50
2023-01-23T06:45:14.125Z,25.30
2023-01-23T06:46:14.112Z,26.70
2023-01-23T06:47:14.037Z,23.10
2023-01-23T06:48:14.014Z,24.40
2023-01-23T06:49:14.051Z,24.70
2023-01-23T06:50:13.889Z,25.00
2023-01-23T06:51:14.019Z,25.80
2023-01-23T06:52:13.799Z,24.90
2023-01-23T06:53:13.741Z,23.50
2023-01-23T06:54:13.692Z,23.10
2023-01-23T06:55:14.705Z,22.40
2023-01-23T06:56:13.599Z,21.60
2023-01-23T06:57:13.553Z,24.00
2023-01-23T06:58:13.502Z,20.60
2023-01-23T06:59:13.456Z,24.00
2023-01-23T07:00:13.457Z,21.70
2023-01-23T07:01:13.412Z,22.10
2023-01-23T07:02:13.314Z,21.20
2023-01-23T07:03:13.324Z,23.00
2023-01-23T07:04:13.214Z,21.10
2023-01-23T07:05:13.289Z,21.50
2023-01-23T07:06:13.136Z,23.50
2023-01-23T07:07:13.072Z,19.70
2023-01-23T07:08:13.047Z,20.60
2023-01-23T07:09:12.972Z,22.50
2023-01-23T07:10:12.925Z,23.50
2023-01-23T07:11:12.908Z,21.90
2023-01-23T07:12:12.825Z,20.80
2023-01-23T07:13:12.777Z,23.00
2023-01-23T07:14:12.730Z,22.40
2023-01-23T07:15:12.685Z,22.70
2023-01-23T07:16:12.720Z,24.10
2023-01-23T07:17:12.592Z,21.80
2023-01-23T07:18:12.540Z,21.50
2023-01-23T07:19:12.489Z,21.50
2023-01-23T07:20:12.444Z,23.50
2023-01-23T07:21:12.504Z,21.90
2023-01-23T07:22:12.345Z,38.70
2023-01-23T07:23:12.298Z,26.60
2023-01-23T07:24:12.249Z,23.60
2023-01-23T07:25:12.205Z,27.90
2023-01-23T07:26:12.162Z,39.00
2023-01-23T07:27:12.108Z,22.70
2023-01-23T07:28:12.078Z,25.90
2023-01-23T07:29:12.013Z,23.20
2023-01-23T07:30:11.963Z,27.10
2023-01-23T07:31:12.046Z,25.00
2023-01-23T07:32:11.866Z,25.10
2023-01-23T07:33:11.818Z,23.60
2023-01-23T07:34:11.769Z,21.00
2023-01-23T07:35:11.720Z,23.70
2023-01-23T07:36:11.676Z,22.40
2023-01-23T07:37:11.653Z,25.00
2023-01-23T07:38:11.578Z,24.30
2023-01-23T07:39:11.529Z,21.10
2023-01-23T07:40:11.690Z,19.90
2023-01-23T07:41:11.432Z,23.20
2023-01-23T07:42:11.394Z,23.00
2023-01-23T07:43:11.345Z,23.60
2023-01-23T07:44:11.290Z,21.20
2023-01-23T07:45:11.273Z,23.90
2023-01-23T07:46:11.232Z,21.70
2023-01-23T07:47:11.145Z,22.30
2023-01-23T21:14:14.546Z,14.60
2023-01-23T21:15:14.391Z,16.50
2023-01-23T21:16:14.395Z,15.00
2023-01-23T21:17:14.266Z,15.70
2023-01-23T21:18:14.213Z,15.20
2023-01-23T21:19:14.156Z,13.90
2023-01-23T21:20:14.122Z,16.60
2023-01-23T21:21:14.086Z,16.00
2023-01-23T21:22:14.003Z,15.90
2023-01-23T21:23:13.952Z,16.80
2023-01-23T21:24:14.086Z,14.90
2023-01-23T21:25:13.856Z,16.60
2023-01-23T21:26:13.800Z,14.20
2023-01-23T21:27:13.750Z,12.50
2023-01-23T21:28:13.740Z,15.60
2023-01-23T21:29:13.663Z,16.10
2023-01-23T21:30:13.731Z,15.00
2023-01-23T21:31:13.704Z,14.40
2023-01-23T21:32:13.502Z,14.00
2023-01-23T21:33:13.463Z,15.30
2023-01-23T21:34:13.407Z,14.90
2023-01-23T21:35:13.353Z,14.30
2023-01-23T21:37:13.266Z,13.90
2023-01-23T21:39:13.175Z,14.60
2023-01-23T21:40:13.119Z,12.80
2023-01-23T21:41:13.062Z,15.30
2023-01-23T21:42:13.013Z,17.70
2023-01-23T21:43:12.967Z,14.40
2023-01-23T21:44:12.981Z,14.40
2023-01-23T21:45:12.870Z,14.60
2023-01-23T21:46:13.010Z,13.50
2023-01-23T21:47:12.774Z,13.90
2023-01-23T21:48:12.731Z,14.20
2023-01-23T21:49:12.676Z,14.80
2023-01-23T21:50:12.628Z,14.00
2023-01-23T21:51:12.605Z,14.70
2023-01-23T21:52:12.547Z,13.50
2023-01-23T21:53:12.490Z,14.40
2023-01-23T21:54:12.453Z,14.50
2023-01-23T21:55:12.389Z,13.90
2023-01-23T21:56:12.349Z,16.70
2023-01-23T21:57:12.295Z,14.70
2023-01-23T21:58:12.252Z,14.30
2023-01-23T21:59:12.200Z,14.10
2023-01-23T22:00:13.758Z,13.90
2023-01-23T22:01:12.138Z,13.90
2023-01-23T22:02:12.172Z,14.30
2023-01-23T22:03:12.006Z,14.00
2023-01-23T22:04:11.960Z,14.20
2023-01-23T22:05:11.970Z,15.20
2023-01-23T22:06:11.864Z,14.20
2023-01-23T22:07:11.818Z,13.40
2023-01-23T22:08:11.765Z,14.50
2023-01-23T22:09:11.719Z,14.80
2023-01-23T22:10:11.677Z,13.80
2023-01-23T22:11:11.632Z,14.10
2023-01-23T22:12:11.573Z,13.70
2023-01-23T22:13:11.529Z,14.30
2023-01-23T22:14:11.490Z,15.10
2023-01-23T22:15:11.445Z,15.40
2023-01-23T22:16:11.407Z,17.30
2023-01-23T22:17:11.340Z,16.10
2023-01-23T22:18:11.402Z,15.80
2023-01-23T22:19:11.238Z,14.80
2023-01-23T22:20:11.191Z,15.50
2023-01-23T22:21:11.148Z,14.80
2023-01-23T22:22:11.094Z,14.20
2023-01-23T22:24:36.808Z,14.60
2023-01-23T22:25:36.762Z,14.40
2023-01-23T22:26:36.709Z,15.20
2023-01-23T22:27:36.664Z,14.80
2023-01-23T22:28:36.614Z,15.00
2023-01-23T22:29:36.569Z,14.90
2023-01-23T22:31:36.616Z,15.20
2023-01-23T22:32:36.424Z,16.60
2023-01-23T22:33:40.768Z,19.20
2023-01-23T22:34:36.324Z,17.30
